sensor_id;sensor_type;location;lat;lon;timestamp;P1;durP1;ratioP1;P2;durP2;ratioP2
25581;SDS011;13462;50.764;4.332;2024-03-07T00:02:12;25.17;;;13.55;;
25581;SDS011;13462;50.764;4.332;2024-03-07T00:04:38;24.23;;;14.32;;
25581;SDS011;13462;50.764;4.332;2024-03-07T00:07:04;26.65;;;13.43;;
25581;SDS011;13462;50.764;4.332;2024-03-07T00:09:34;29.27;;;15.57;;
25581;SDS011;13462;50.764;4.332;2024-03-07T00:12:00;24.77;;;13.65;;
25581;SDS011;13462;50.764;4.332;2024-03-07T00:14:26;28.98;;;15.20;;
25581;SDS011;13462;50.764;4.332;2024-03-07T00:16:55;32.53;;;17.00;;
25581;SDS011;13462;50.764;4.332;2024-03-07T00:19:22;35.10;;;17.92;;
25581;SDS011;13462;50.764;4.332;2024-03-07T00:21:52;35.85;;;17.80;;
25581;SDS011;13462;50.764;4.332;2024-03-07T00:24:18;36.78;;;19.20;;
25581;SDS011;13462;50.764;4.332;2024-03-07T00:26:44;45.55;;;21.20;;
25581;SDS011;13462;50.764;4.332;2024-03-07T00:29:10;46.53;;;22.45;;
25581;SDS011;13462;50.764;4.332;2024-03-07T00:31:36;42.58;;;21.75;;
25581;SDS011;13462;50.764;4.332;2024-03-07T00:34:02;47.67;;;21.83;;
25581;SDS011;13462;50.764;4.332;2024-03-07T00:36:27;55.22;;;23.65;;
25581;SDS011;13462;50.764;4.332;2024-03-07T00:38:53;55.15;;;23.58;;
25581;SDS011;13462;50.764;4.332;2024-03-07T00:41:19;51.47;;;22.40;;
25581;SDS011;13462;50.764;4.332;2024-03-07T00:43:45;57.45;;;25.17;;
25581;SDS011;13462;50.764;4.332;2024-03-07T00:46:11;57.05;;;26.42;;
25581;SDS011;13462;50.764;4.332;2024-03-07T00:48:37;64.03;;;28.20;;
25581;SDS011;13462;50.764;4.332;2024-03-07T00:51:03;67.63;;;28.20;;
25581;SDS011;13462;50.764;4.332;2024-03-07T00:53:29;67.18;;;28.40;;
25581;SDS011;13462;50.764;4.332;2024-03-07T00:55:55;70.68;;;29.80;;
25581;SDS011;13462;50.764;4.332;2024-03-07T00:58:21;71.25;;;30.10;;
25581;SDS011;13462;50.764;4.332;2024-03-07T01:00:47;72.25;;;29.60;;
25581;SDS011;13462;50.764;4.332;2024-03-07T01:03:13;83.40;;;33.97;;
25581;SDS011;13462;50.764;4.332;2024-03-07T01:05:42;80.97;;;33.13;;
25581;SDS011;13462;50.764;4.332;2024-03-07T01:08:08;85.53;;;35.47;;
25581;SDS011;13462;50.764;4.332;2024-03-07T01:10:34;92.93;;;36.75;;
25581;SDS011;13462;50.764;4.332;2024-03-07T01:13:00;83.50;;;34.72;;
25581;SDS011;13462;50.764;4.332;2024-03-07T01:15:29;91.15;;;37.55;;
25581;SDS011;13462;50.764;4.332;2024-03-07T01:17:57;96.38;;;36.75;;
25581;SDS011;13462;50.764;4.332;2024-03-07T01:20:23;98.90;;;39.67;;
25581;SDS011;13462;50.764;4.332;2024-03-07T01:22:50;97.63;;;38.28;;
25581;SDS011;13462;50.764;4.332;2024-03-07T01:25:16;102.32;;;38.90;;
25581;SDS011;13462;50.764;4.332;2024-03-07T01:27:42;93.65;;;37.28;;
25581;SDS011;13462;50.764;4.332;2024-03-07T01:30:09;108.95;;;40.65;;
25581;SDS011;13462;50.764;4.332;2024-03-07T01:32:35;109.10;;;42.90;;
25581;SDS011;13462;50.764;4.332;2024-03-07T01:35:00;121.82;;;43.28;;
25581;SDS011;13462;50.764;4.332;2024-03-07T01:37:26;111.15;;;43.10;;
25581;SDS011;13462;50.764;4.332;2024-03-07T01:39:52;123.28;;;43.65;;
25581;SDS011;13462;50.764;4.332;2024-03-07T01:42:18;120.25;;;44.58;;
25581;SDS011;13462;50.764;4.332;2024-03-07T01:44:43;116.60;;;43.70;;
25581;SDS011;13462;50.764;4.332;2024-03-07T01:47:09;126.35;;;47.08;;
25581;SDS011;13462;50.764;4.332;2024-03-07T01:49:36;116.65;;;43.78;;
25581;SDS011;13462;50.764;4.332;2024-03-07T01:52:03;124.50;;;45.95;;
25581;SDS011;13462;50.764;4.332;2024-03-07T01:54:32;111.55;;;42.20;;
25581;SDS011;13462;50.764;4.332;2024-03-07T01:56:59;127.57;;;48.78;;
25581;SDS011;13462;50.764;4.332;2024-03-07T01:59:26;127.25;;;46.65;;
25581;SDS011;13462;50.764;4.332;2024-03-07T02:01:54;121.15;;;45.88;;
25581;SDS011;13462;50.764;4.332;2024-03-07T02:04:21;126.45;;;46.47;;
25581;SDS011;13462;50.764;4.332;2024-03-07T02:06:48;125.10;;;47.75;;
25581;SDS011;13462;50.764;4.332;2024-03-07T02:09:14;119.90;;;45.88;;
25581;SDS011;13462;50.764;4.332;2024-03-07T02:11:40;129.65;;;48.90;;
25581;SDS011;13462;50.764;4.332;2024-03-07T02:14:05;145.43;;;51.47;;
25581;SDS011;13462;50.764;4.332;2024-03-07T02:16:31;134.95;;;49.28;;
25581;SDS011;13462;50.764;4.332;2024-03-07T02:18:57;135.23;;;47.15;;
25581;SDS011;13462;50.764;4.332;2024-03-07T02:21:24;128.32;;;47.78;;
25581;SDS011;13462;50.764;4.332;2024-03-07T02:23:50;125.00;;;48.22;;
25581;SDS011;13462;50.764;4.332;2024-03-07T02:26:16;141.40;;;49.38;;
25581;SDS011;13462;50.764;4.332;2024-03-07T02:28:41;131.07;;;47.15;;
25581;SDS011;13462;50.764;4.332;2024-03-07T02:31:07;138.48;;;48.67;;
25581;SDS011;13462;50.764;4.332;2024-03-07T02:33:33;142.10;;;49.13;;
25581;SDS011;13462;50.764;4.332;2024-03-07T02:35:58;146.57;;;51.20;;
25581;SDS011;13462;50.764;4.332;2024-03-07T02:38:24;142.25;;;47.55;;
25581;SDS011;13462;50.764;4.332;2024-03-07T02:40:50;138.80;;;48.95;;
25581;SDS011;13462;50.764;4.332;2024-03-07T02:43:15;136.70;;;48.35;;
25581;SDS011;13462;50.764;4.332;2024-03-07T02:45:41;129.82;;;48.55;;
25581;SDS011;13462;50.764;4.332;2024-03-07T02:48:06;132.27;;;48.63;;
25581;SDS011;13462;50.764;4.332;2024-03-07T02:50:34;139.20;;;51.03;;
25581;SDS011;13462;50.764;4.332;2024-03-07T02:53:02;138.82;;;50.35;;
25581;SDS011;13462;50.764;4.332;2024-03-07T02:55:32;137.82;;;49.60;;
25581;SDS011;13462;50.764;4.332;2024-03-07T02:57:58;124.60;;;47.90;;
25581;SDS011;13462;50.764;4.332;2024-03-07T03:00:25;139.88;;;47.72;;
25581;SDS011;13462;50.764;4.332;2024-03-07T03:02:57;133.70;;;49.72;;
25581;SDS011;13462;50.764;4.332;2024-03-07T03:05:22;138.27;;;48.00;;
25581;SDS011;13462;50.764;4.332;2024-03-07T03:07:49;136.15;;;50.65;;
25581;SDS011;13462;50.764;4.332;2024-03-07T03:10:24;144.93;;;47.90;;
25581;SDS011;13462;50.764;4.332;2024-03-07T03:12:58;127.82;;;46.75;;
25581;SDS011;13462;50.764;4.332;2024-03-07T03:15:24;137.13;;;48.55;;
25581;SDS011;13462;50.764;4.332;2024-03-07T03:17:50;141.77;;;48.70;;
25581;SDS011;13462;50.764;4.332;2024-03-07T03:20:17;128.63;;;46.42;;
25581;SDS011;13462;50.764;4.332;2024-03-07T03:22:49;136.18;;;46.72;;
25581;SDS011;13462;50.764;4.332;2024-03-07T03:25:15;122.85;;;45.70;;
25581;SDS011;13462;50.764;4.332;2024-03-07T03:27:41;144.82;;;48.45;;
25581;SDS011;13462;50.764;4.332;2024-03-07T03:30:07;138.77;;;48.47;;
25581;SDS011;13462;50.764;4.332;2024-03-07T03:32:33;139.63;;;49.95;;
25581;SDS011;13462;50.764;4.332;2024-03-07T03:34:58;119.30;;;44.67;;
25581;SDS011;13462;50.764;4.332;2024-03-07T03:37:24;123.68;;;45.17;;
25581;SDS011;13462;50.764;4.332;2024-03-07T03:39:49;125.30;;;43.55;;
25581;SDS011;13462;50.764;4.332;2024-03-07T03:42:15;125.55;;;47.25;;
25581;SDS011;13462;50.764;4.332;2024-03-07T03:44:41;117.30;;;44.85;;
25581;SDS011;13462;50.764;4.332;2024-03-07T03:47:06;120.50;;;44.70;;
25581;SDS011;13462;50.764;4.332;2024-03-07T03:49:32;114.38;;;40.25;;
25581;SDS011;13462;50.764;4.332;2024-03-07T03:51:57;116.93;;;46.25;;
25581;SDS011;13462;50.764;4.332;2024-03-07T03:54:24;117.65;;;43.53;;
25581;SDS011;13462;50.764;4.332;2024-03-07T03:56:50;110.85;;;43.05;;
25581;SDS011;13462;50.764;4.332;2024-03-07T03:59:15;114.18;;;41.25;;
25581;SDS011;13462;50.764;4.332;2024-03-07T04:01:41;120.68;;;44.70;;
25581;SDS011;13462;50.764;4.332;2024-03-07T04:04:07;119.72;;;40.65;;
25581;SDS011;13462;50.764;4.332;2024-03-07T04:06:34;120.05;;;43.67;;
25581;SDS011;13462;50.764;4.332;2024-03-07T04:09:00;124.13;;;45.30;;
25581;SDS011;13462;50.764;4.332;2024-03-07T04:11:25;126.63;;;45.00;;
25581;SDS011;13462;50.764;4.332;2024-03-07T04:13:51;120.05;;;44.92;;
25581;SDS011;13462;50.764;4.332;2024-03-07T04:16:17;120.20;;;43.15;;
25581;SDS011;13462;50.764;4.332;2024-03-07T04:18:43;126.35;;;44.40;;
25581;SDS011;13462;50.764;4.332;2024-03-07T04:21:08;120.07;;;43.75;;
25581;SDS011;13462;50.764;4.332;2024-03-07T04:23:34;120.78;;;42.67;;
25581;SDS011;13462;50.764;4.332;2024-03-07T04:26:00;120.72;;;41.17;;
25581;SDS011;13462;50.764;4.332;2024-03-07T04:28:25;120.78;;;42.88;;
25581;SDS011;13462;50.764;4.332;2024-03-07T04:30:52;116.88;;;41.60;;
25581;SDS011;13462;50.764;4.332;2024-03-07T04:33:18;121.93;;;41.30;;
25581;SDS011;13462;50.764;4.332;2024-03-07T04:35:44;121.55;;;42.90;;
25581;SDS011;13462;50.764;4.332;2024-03-07T04:38:10;128.40;;;44.08;;
25581;SDS011;13462;50.764;4.332;2024-03-07T04:40:40;115.13;;;42.40;;
25581;SDS011;13462;50.764;4.332;2024-03-07T04:43:08;125.13;;;43.50;;
25581;SDS011;13462;50.764;4.332;2024-03-07T04:45:34;128.98;;;42.85;;
25581;SDS011;13462;50.764;4.332;2024-03-07T04:47:59;126.00;;;45.45;;
25581;SDS011;13462;50.764;4.332;2024-03-07T04:50:25;133.25;;;46.45;;
25581;SDS011;13462;50.764;4.332;2024-03-07T04:52:51;130.93;;;45.67;;
25581;SDS011;13462;50.764;4.332;2024-03-07T04:55:17;136.88;;;49.38;;
25581;SDS011;13462;50.764;4.332;2024-03-07T04:57:43;143.48;;;46.72;;
25581;SDS011;13462;50.764;4.332;2024-03-07T05:00:10;140.75;;;47.30;;
25581;SDS011;13462;50.764;4.332;2024-03-07T05:02:43;149.43;;;46.92;;
25581;SDS011;13462;50.764;4.332;2024-03-07T05:05:10;142.27;;;47.80;;
25581;SDS011;13462;50.764;4.332;2024-03-07T05:07:35;151.32;;;49.05;;
25581;SDS011;13462;50.764;4.332;2024-03-07T05:10:04;151.63;;;48.85;;
25581;SDS011;13462;50.764;4.332;2024-03-07T05:12:31;148.60;;;49.95;;
25581;SDS011;13462;50.764;4.332;2024-03-07T05:14:57;165.52;;;49.67;;
25581;SDS011;13462;50.764;4.332;2024-03-07T05:17:23;167.07;;;52.03;;
25581;SDS011;13462;50.764;4.332;2024-03-07T05:19:49;159.20;;;51.30;;
25581;SDS011;13462;50.764;4.332;2024-03-07T05:22:15;171.68;;;50.90;;
25581;SDS011;13462;50.764;4.332;2024-03-07T05:24:42;162.73;;;53.80;;
25581;SDS011;13462;50.764;4.332;2024-03-07T05:27:08;176.77;;;53.95;;
25581;SDS011;13462;50.764;4.332;2024-03-07T05:29:36;177.13;;;51.65;;
25581;SDS011;13462;50.764;4.332;2024-03-07T05:32:21;175.60;;;53.83;;
25581;SDS011;13462;50.764;4.332;2024-03-07T05:34:48;176.73;;;54.42;;
25581;SDS011;13462;50.764;4.332;2024-03-07T05:37:14;182.20;;;54.63;;
25581;SDS011;13462;50.764;4.332;2024-03-07T05:39:39;180.32;;;55.20;;
25581;SDS011;13462;50.764;4.332;2024-03-07T05:42:05;190.00;;;53.92;;
25581;SDS011;13462;50.764;4.332;2024-03-07T05:44:32;171.50;;;52.15;;
25581;SDS011;13462;50.764;4.332;2024-03-07T05:46:58;177.18;;;55.88;;
25581;SDS011;13462;50.764;4.332;2024-03-07T05:49:23;192.85;;;58.22;;
25581;SDS011;13462;50.764;4.332;2024-03-07T05:51:49;189.02;;;54.80;;
25581;SDS011;13462;50.764;4.332;2024-03-07T05:54:14;204.18;;;59.28;;
25581;SDS011;13462;50.764;4.332;2024-03-07T05:56:40;192.40;;;56.53;;
25581;SDS011;13462;50.764;4.332;2024-03-07T05:59:07;206.45;;;58.78;;
25581;SDS011;13462;50.764;4.332;2024-03-07T06:01:34;207.25;;;59.55;;
25581;SDS011;13462;50.764;4.332;2024-03-07T06:04:00;212.23;;;59.33;;
25581;SDS011;13462;50.764;4.332;2024-03-07T06:06:27;209.82;;;60.10;;
25581;SDS011;13462;50.764;4.332;2024-03-07T06:08:53;221.77;;;58.95;;
25581;SDS011;13462;50.764;4.332;2024-03-07T06:11:19;223.50;;;60.95;;
25581;SDS011;13462;50.764;4.332;2024-03-07T06:13:46;204.27;;;60.58;;
25581;SDS011;13462;50.764;4.332;2024-03-07T06:16:13;233.75;;;61.55;;
25581;SDS011;13462;50.764;4.332;2024-03-07T06:18:40;225.27;;;59.00;;
25581;SDS011;13462;50.764;4.332;2024-03-07T06:21:06;236.35;;;60.22;;
25581;SDS011;13462;50.764;4.332;2024-03-07T06:23:33;236.45;;;62.47;;
25581;SDS011;13462;50.764;4.332;2024-03-07T06:25:59;232.40;;;59.63;;
25581;SDS011;13462;50.764;4.332;2024-03-07T06:28:25;232.02;;;62.15;;
25581;SDS011;13462;50.764;4.332;2024-03-07T06:30:53;232.07;;;62.50;;
25581;SDS011;13462;50.764;4.332;2024-03-07T06:33:20;232.75;;;60.45;;
25581;SDS011;13462;50.764;4.332;2024-03-07T06:35:47;230.18;;;61.05;;
25581;SDS011;13462;50.764;4.332;2024-03-07T06:38:13;243.63;;;60.60;;
25581;SDS011;13462;50.764;4.332;2024-03-07T06:40:39;217.32;;;56.80;;
25581;SDS011;13462;50.764;4.332;2024-03-07T06:43:05;218.82;;;55.75;;
25581;SDS011;13462;50.764;4.332;2024-03-07T06:45:32;226.00;;;58.90;;
25581;SDS011;13462;50.764;4.332;2024-03-07T06:47:58;219.10;;;57.20;;
25581;SDS011;13462;50.764;4.332;2024-03-07T06:50:24;220.30;;;58.90;;
25581;SDS011;13462;50.764;4.332;2024-03-07T06:52:50;227.68;;;60.05;;
25581;SDS011;13462;50.764;4.332;2024-03-07T06:55:16;228.30;;;58.13;;
25581;SDS011;13462;50.764;4.332;2024-03-07T06:57:45;223.35;;;57.38;;
25581;SDS011;13462;50.764;4.332;2024-03-07T07:00:11;217.60;;;57.60;;
25581;SDS011;13462;50.764;4.332;2024-03-07T07:02:39;225.48;;;56.10;;
25581;SDS011;13462;50.764;4.332;2024-03-07T07:05:06;217.02;;;58.05;;
25581;SDS011;13462;50.764;4.332;2024-03-07T07:07:36;200.50;;;59.03;;
25581;SDS011;13462;50.764;4.332;2024-03-07T07:10:07;206.57;;;55.55;;
25581;SDS011;13462;50.764;4.332;2024-03-07T07:12:37;214.90;;;57.40;;
25581;SDS011;13462;50.764;4.332;2024-03-07T07:15:03;215.88;;;58.08;;
25581;SDS011;13462;50.764;4.332;2024-03-07T07:17:30;226.45;;;57.15;;
25581;SDS011;13462;50.764;4.332;2024-03-07T07:19:58;211.48;;;56.88;;
25581;SDS011;13462;50.764;4.332;2024-03-07T07:22:25;192.52;;;54.00;;
25581;SDS011;13462;50.764;4.332;2024-03-07T07:24:51;195.15;;;56.05;;
25581;SDS011;13462;50.764;4.332;2024-03-07T07:27:16;193.05;;;53.50;;
25581;SDS011;13462;50.764;4.332;2024-03-07T07:29:43;207.73;;;55.08;;
25581;SDS011;13462;50.764;4.332;2024-03-07T07:32:09;196.02;;;54.38;;
25581;SDS011;13462;50.764;4.332;2024-03-07T07:34:37;205.02;;;56.90;;
25581;SDS011;13462;50.764;4.332;2024-03-07T07:37:03;208.32;;;57.38;;
25581;SDS011;13462;50.764;4.332;2024-03-07T07:39:29;189.93;;;53.17;;
25581;SDS011;13462;50.764;4.332;2024-03-07T07:41:56;189.57;;;52.15;;
25581;SDS011;13462;50.764;4.332;2024-03-07T07:44:22;182.15;;;53.83;;
25581;SDS011;13462;50.764;4.332;2024-03-07T07:46:47;185.00;;;56.53;;
25581;SDS011;13462;50.764;4.332;2024-03-07T07:49:14;189.93;;;54.83;;
25581;SDS011;13462;50.764;4.332;2024-03-07T07:51:41;178.95;;;52.20;;
25581;SDS011;13462;50.764;4.332;2024-03-07T07:54:07;187.80;;;52.92;;
25581;SDS011;13462;50.764;4.332;2024-03-07T07:56:34;178.20;;;52.05;;
25581;SDS011;13462;50.764;4.332;2024-03-07T07:59:00;170.50;;;48.75;;
25581;SDS011;13462;50.764;4.332;2024-03-07T08:01:28;160.65;;;49.53;;
25581;SDS011;13462;50.764;4.332;2024-03-07T08:03:53;150.48;;;49.60;;
25581;SDS011;13462;50.764;4.332;2024-03-07T08:06:19;160.52;;;50.08;;
25581;SDS011;13462;50.764;4.332;2024-03-07T08:08:45;155.38;;;49.15;;
25581;SDS011;13462;50.764;4.332;2024-03-07T08:11:11;152.88;;;50.92;;
25581;SDS011;13462;50.764;4.332;2024-03-07T08:13:39;154.10;;;50.90;;
25581;SDS011;13462;50.764;4.332;2024-03-07T08:16:05;139.68;;;48.38;;
25581;SDS011;13462;50.764;4.332;2024-03-07T08:18:31;129.70;;;46.38;;
25581;SDS011;13462;50.764;4.332;2024-03-07T08:20:57;127.03;;;45.35;;
25581;SDS011;13462;50.764;4.332;2024-03-07T08:23:23;116.03;;;41.47;;
25581;SDS011;13462;50.764;4.332;2024-03-07T08:25:51;113.88;;;42.47;;
25581;SDS011;13462;50.764;4.332;2024-03-07T08:28:17;104.55;;;42.03;;
25581;SDS011;13462;50.764;4.332;2024-03-07T08:30:43;96.07;;;37.90;;
25581;SDS011;13462;50.764;4.332;2024-03-07T08:33:09;105.38;;;39.70;;
25581;SDS011;13462;50.764;4.332;2024-03-07T08:35:35;87.45;;;36.22;;
25581;SDS011;13462;50.764;4.332;2024-03-07T08:38:01;85.18;;;37.22;;
25581;SDS011;13462;50.764;4.332;2024-03-07T08:40:27;78.75;;;33.03;;
25581;SDS011;13462;50.764;4.332;2024-03-07T08:42:57;74.80;;;31.23;;
25581;SDS011;13462;50.764;4.332;2024-03-07T08:45:23;78.30;;;34.30;;
25581;SDS011;13462;50.764;4.332;2024-03-07T08:47:50;75.63;;;31.70;;
25581;SDS011;13462;50.764;4.332;2024-03-07T08:50:19;79.57;;;34.45;;
25581;SDS011;13462;50.764;4.332;2024-03-07T08:52:45;86.68;;;34.85;;
25581;SDS011;13462;50.764;4.332;2024-03-07T08:55:13;83.35;;;35.33;;
25581;SDS011;13462;50.764;4.332;2024-03-07T08:57:43;91.55;;;37.97;;
25581;SDS011;13462;50.764;4.332;2024-03-07T09:00:11;88.35;;;34.25;;
25581;SDS011;13462;50.764;4.332;2024-03-07T09:02:47;88.50;;;36.47;;
25581;SDS011;13462;50.764;4.332;2024-03-07T09:05:20;98.95;;;36.75;;
25581;SDS011;13462;50.764;4.332;2024-03-07T09:07:50;101.90;;;36.13;;
25581;SDS011;13462;50.764;4.332;2024-03-07T09:10:17;94.55;;;37.22;;
25581;SDS011;13462;50.764;4.332;2024-03-07T09:12:43;97.18;;;35.50;;
25581;SDS011;13462;50.764;4.332;2024-03-07T09:15:09;93.55;;;36.78;;
25581;SDS011;13462;50.764;4.332;2024-03-07T09:17:35;97.57;;;36.67;;
25581;SDS011;13462;50.764;4.332;2024-03-07T09:20:04;95.47;;;35.63;;
25581;SDS011;13462;50.764;4.332;2024-03-07T09:22:31;93.85;;;36.83;;
25581;SDS011;13462;50.764;4.332;2024-03-07T09:24:57;91.93;;;35.78;;
25581;SDS011;13462;50.764;4.332;2024-03-07T09:27:23;93.55;;;37.08;;
25581;SDS011;13462;50.764;4.332;2024-03-07T09:29:49;87.93;;;36.65;;
25581;SDS011;13462;50.764;4.332;2024-03-07T09:32:14;87.57;;;34.55;;
25581;SDS011;13462;50.764;4.332;2024-03-07T09:34:40;90.07;;;36.45;;
25581;SDS011;13462;50.764;4.332;2024-03-07T09:37:05;95.90;;;36.50;;
25581;SDS011;13462;50.764;4.332;2024-03-07T09:39:32;87.10;;;35.78;;
25581;SDS011;13462;50.764;4.332;2024-03-07T09:42:00;93.10;;;38.13;;
25581;SDS011;13462;50.764;4.332;2024-03-07T09:44:27;89.18;;;36.13;;
25581;SDS011;13462;50.764;4.332;2024-03-07T09:46:57;82.80;;;34.03;;
25581;SDS011;13462;50.764;4.332;2024-03-07T09:49:25;83.60;;;35.40;;
25581;SDS011;13462;50.764;4.332;2024-03-07T09:51:53;74.55;;;33.30;;
25581;SDS011;13462;50.764;4.332;2024-03-07T09:54:21;72.90;;;32.38;;
25581;SDS011;13462;50.764;4.332;2024-03-07T09:56:51;74.30;;;33.42;;
25581;SDS011;13462;50.764;4.332;2024-03-07T09:59:19;72.38;;;33.10;;
25581;SDS011;13462;50.764;4.332;2024-03-07T10:01:47;73.68;;;33.33;;
25581;SDS011;13462;50.764;4.332;2024-03-07T10:04:16;70.25;;;33.38;;
25581;SDS011;13462;50.764;4.332;2024-03-07T10:06:51;69.20;;;32.20;;
25581;SDS011;13462;50.764;4.332;2024-03-07T10:09:18;67.97;;;32.38;;
25581;SDS011;13462;50.764;4.332;2024-03-07T10:11:55;67.40;;;34.00;;
25581;SDS011;13462;50.764;4.332;2024-03-07T10:14:24;65.82;;;33.75;;
25581;SDS011;13462;50.764;4.332;2024-03-07T10:16:50;62.90;;;33.17;;
25581;SDS011;13462;50.764;4.332;2024-03-07T10:19:18;61.80;;;34.35;;
25581;SDS011;13462;50.764;4.332;2024-03-07T10:21:44;66.47;;;34.35;;
25581;SDS011;13462;50.764;4.332;2024-03-07T10:24:09;68.55;;;34.55;;
25581;SDS011;13462;50.764;4.332;2024-03-07T10:26:38;60.25;;;32.95;;
25581;SDS011;13462;50.764;4.332;2024-03-07T10:29:05;63.35;;;33.88;;
25581;SDS011;13462;50.764;4.332;2024-03-07T10:31:32;58.90;;;32.35;;
25581;SDS011;13462;50.764;4.332;2024-03-07T10:34:02;60.45;;;34.72;;
25581;SDS011;13462;50.764;4.332;2024-03-07T10:36:31;59.30;;;33.92;;
25581;SDS011;13462;50.764;4.332;2024-03-07T10:39:01;56.90;;;33.35;;
25581;SDS011;13462;50.764;4.332;2024-03-07T10:41:28;57.08;;;33.28;;
25581;SDS011;13462;50.764;4.332;2024-03-07T10:43:56;59.17;;;34.30;;
25581;SDS011;13462;50.764;4.332;2024-03-07T10:46:24;62.78;;;34.05;;
25581;SDS011;13462;50.764;4.332;2024-03-07T10:48:53;58.17;;;34.13;;
25581;SDS011;13462;50.764;4.332;2024-03-07T10:51:22;54.70;;;33.08;;
25581;SDS011;13462;50.764;4.332;2024-03-07T10:54:05;54.38;;;33.38;;
25581;SDS011;13462;50.764;4.332;2024-03-07T10:56:43;53.40;;;32.55;;
25581;SDS011;13462;50.764;4.332;2024-03-07T10:59:30;52.72;;;31.38;;
25581;SDS011;13462;50.764;4.332;2024-03-07T11:04:49;52.83;;;33.10;;
25581;SDS011;13462;50.764;4.332;2024-03-07T11:07:17;51.75;;;32.85;;
25581;SDS011;13462;50.764;4.332;2024-03-07T11:09:48;48.97;;;31.25;;
25581;SDS011;13462;50.764;4.332;2024-03-07T11:12:17;51.78;;;32.58;;
25581;SDS011;13462;50.764;4.332;2024-03-07T11:14:49;51.00;;;31.80;;
25581;SDS011;13462;50.764;4.332;2024-03-07T11:17:16;54.33;;;32.55;;
25581;SDS011;13462;50.764;4.332;2024-03-07T11:19:44;47.90;;;30.10;;
25581;SDS011;13462;50.764;4.332;2024-03-07T11:22:10;50.35;;;30.90;;
25581;SDS011;13462;50.764;4.332;2024-03-07T11:24:42;50.42;;;32.25;;
25581;SDS011;13462;50.764;4.332;2024-03-07T11:27:09;45.60;;;30.42;;
25581;SDS011;13462;50.764;4.332;2024-03-07T11:29:48;47.22;;;32.15;;
25581;SDS011;13462;50.764;4.332;2024-03-07T11:32:17;48.25;;;29.27;;
25581;SDS011;13462;50.764;4.332;2024-03-07T11:34:46;48.67;;;31.23;;
25581;SDS011;13462;50.764;4.332;2024-03-07T11:40:58;51.70;;;30.50;;
25581;SDS011;13462;50.764;4.332;2024-03-07T11:43:00;46.35;;;29.58;;
25581;SDS011;13462;50.764;4.332;2024-03-07T11:45:29;44.63;;;30.37;;
25581;SDS011;13462;50.764;4.332;2024-03-07T11:48:04;50.28;;;31.92;;
25581;SDS011;13462;50.764;4.332;2024-03-07T11:50:34;50.00;;;31.02;;
25581;SDS011;13462;50.764;4.332;2024-03-07T11:53:05;46.15;;;28.48;;
25581;SDS011;13462;50.764;4.332;2024-03-07T11:55:35;45.42;;;29.75;;
25581;SDS011;13462;50.764;4.332;2024-03-07T11:58:20;49.60;;;31.13;;
25581;SDS011;13462;50.764;4.332;2024-03-07T12:00:49;45.95;;;29.65;;
25581;SDS011;13462;50.764;4.332;2024-03-07T12:03:17;47.67;;;29.25;;
25581;SDS011;13462;50.764;4.332;2024-03-07T12:05:46;45.25;;;28.35;;
25581;SDS011;13462;50.764;4.332;2024-03-07T12:08:16;44.20;;;28.70;;
25581;SDS011;13462;50.764;4.332;2024-03-07T12:10:43;44.88;;;29.08;;
25581;SDS011;13462;50.764;4.332;2024-03-07T12:13:12;47.55;;;27.70;;
25581;SDS011;13462;50.764;4.332;2024-03-07T12:15:41;53.20;;;28.70;;
25581;SDS011;13462;50.764;4.332;2024-03-07T12:18:08;46.30;;;27.13;;
25581;SDS011;13462;50.764;4.332;2024-03-07T12:20:38;49.72;;;26.20;;
25581;SDS011;13462;50.764;4.332;2024-03-07T12:23:06;54.77;;;29.33;;
25581;SDS011;13462;50.764;4.332;2024-03-07T12:25:33;49.13;;;28.02;;
25581;SDS011;13462;50.764;4.332;2024-03-07T12:28:03;47.38;;;26.33;;
25581;SDS011;13462;50.764;4.332;2024-03-07T12:30:37;48.30;;;27.77;;
25581;SDS011;13462;50.764;4.332;2024-03-07T12:33:14;48.90;;;27.75;;
25581;SDS011;13462;50.764;4.332;2024-03-07T12:35:41;46.58;;;26.65;;
25581;SDS011;13462;50.764;4.332;2024-03-07T12:38:13;45.40;;;27.30;;
25581;SDS011;13462;50.764;4.332;2024-03-07T12:40:41;38.97;;;25.45;;
25581;SDS011;13462;50.764;4.332;2024-03-07T12:43:17;43.03;;;26.55;;
25581;SDS011;13462;50.764;4.332;2024-03-07T12:45:53;37.83;;;24.60;;
25581;SDS011;13462;50.764;4.332;2024-03-07T12:48:19;40.58;;;25.13;;
25581;SDS011;13462;50.764;4.332;2024-03-07T12:50:48;42.50;;;25.10;;
25581;SDS011;13462;50.764;4.332;2024-03-07T12:53:22;40.58;;;26.30;;
25581;SDS011;13462;50.764;4.332;2024-03-07T12:55:48;41.75;;;26.75;;
25581;SDS011;13462;50.764;4.332;2024-03-07T12:58:14;41.33;;;26.67;;
25581;SDS011;13462;50.764;4.332;2024-03-07T13:00:40;38.22;;;25.23;;
25581;SDS011;13462;50.764;4.332;2024-03-07T13:03:06;37.30;;;25.23;;
25581;SDS011;13462;50.764;4.332;2024-03-07T13:05:34;35.40;;;25.20;;
25581;SDS011;13462;50.764;4.332;2024-03-07T13:08:02;38.13;;;26.27;;
25581;SDS011;13462;50.764;4.332;2024-03-07T13:10:28;37.47;;;26.55;;
25581;SDS011;13462;50.764;4.332;2024-03-07T13:12:53;43.85;;;28.25;;
25581;SDS011;13462;50.764;4.332;2024-03-07T13:15:19;38.90;;;27.98;;
25581;SDS011;13462;50.764;4.332;2024-03-07T13:17:47;39.72;;;27.95;;
25581;SDS011;13462;50.764;4.332;2024-03-07T13:20:17;45.92;;;27.48;;
25581;SDS011;13462;50.764;4.332;2024-03-07T13:22:46;39.03;;;27.40;;
25581;SDS011;13462;50.764;4.332;2024-03-07T13:25:14;40.60;;;28.45;;
25581;SDS011;13462;50.764;4.332;2024-03-07T13:28:04;41.80;;;27.50;;
25581;SDS011;13462;50.764;4.332;2024-03-07T13:30:42;44.92;;;29.25;;
25581;SDS011;13462;50.764;4.332;2024-03-07T13:33:09;42.92;;;27.92;;
25581;SDS011;13462;50.764;4.332;2024-03-07T13:35:38;46.35;;;28.92;;
25581;SDS011;13462;50.764;4.332;2024-03-07T13:38:05;45.28;;;26.52;;
25581;SDS011;13462;50.764;4.332;2024-03-07T13:40:32;44.58;;;28.23;;
25581;SDS011;13462;50.764;4.332;2024-03-07T13:43:03;46.33;;;28.88;;
25581;SDS011;13462;50.764;4.332;2024-03-07T13:45:31;40.85;;;26.10;;
25581;SDS011;13462;50.764;4.332;2024-03-07T13:48:05;41.05;;;28.08;;
25581;SDS011;13462;50.764;4.332;2024-03-07T13:50:32;41.28;;;26.05;;
25581;SDS011;13462;50.764;4.332;2024-03-07T13:52:59;38.90;;;26.73;;
25581;SDS011;13462;50.764;4.332;2024-03-07T14:06:48;38.97;;;25.92;;
25581;SDS011;13462;50.764;4.332;2024-03-07T14:32:54;42.72;;;25.52;;
25581;SDS011;13462;50.764;4.332;2024-03-07T14:35:30;40.53;;;24.90;;
25581;SDS011;13462;50.764;4.332;2024-03-07T14:38:06;37.00;;;24.13;;
25581;SDS011;13462;50.764;4.332;2024-03-07T14:40:50;38.85;;;22.95;;
25581;SDS011;13462;50.764;4.332;2024-03-07T14:43:17;44.85;;;23.83;;
25581;SDS011;13462;50.764;4.332;2024-03-07T14:45:45;37.47;;;24.50;;
25581;SDS011;13462;50.764;4.332;2024-03-07T14:48:11;39.67;;;24.77;;
25581;SDS011;13462;50.764;4.332;2024-03-07T14:50:41;39.80;;;24.25;;
25581;SDS011;13462;50.764;4.332;2024-03-07T14:53:10;43.40;;;25.65;;
25581;SDS011;13462;50.764;4.332;2024-03-07T14:55:37;40.00;;;24.67;;
25581;SDS011;13462;50.764;4.332;2024-03-07T14:58:05;37.97;;;24.35;;
25581;SDS011;13462;50.764;4.332;2024-03-07T15:00:34;40.00;;;22.83;;